Jump to content


FEDEX FLIGHT FX391 FLOWN ON 06-02-2017 BY CAPTAIN TYLER HANUS

Pilot StatsCaptain Tyler Hanus (LDP525) • 239.4 total hours • 51 total flights [View Logbook]
FLIGHT DETAILS
StatusReceived and approved on 2017-06-02 at 13:06:29
Origin AirportKennedy Intl (KJFK) • New York, New York, United States (13 feet MSL)
Filed Flight PlanFLIGHT PLANNER OFFLINE
Destination AirportMemphis Intl (KMEM) • Memphis, Tennessee, United States (341 feet MSL)
Alternate AirportMillington Mun (KNQA) • Millington, Tennessee, United States (320 feet MSL)
AirlineFedEx
AircraftBoeing 777-200 Freighter (77F / B777-200F)
FS Aircraft UsedPMDG 777-FS2 FedEx Express
Cruising AltitudeFL340
Distance Flown835 nautical miles
Cargo Onboard133,600 lbs (98.44% full)
DEPARTURE DETAILS
Time Out10:55:05
Taxi Data534,632 lbs total with 89,232 lbs of fuel onboard
Takeoff Data11:13:57 (19 minutes after leaving gate/ramp) • 532,581 lbs total • 5° pitch at 156 knots
Departure METARKJFK 021351Z 21007KT 10SM FEW065 FEW250 19/11 A3000 RMK AO2 SLP160 T01890111
ARRIVAL DETAILS
Landing Data12:36:13 • 492,949 lbs total • 4° pitch doing 140 knots at a rate of -314.50 feet/minute with 46,575 lbs of fuel onboard
Time In12:43:08 (7 minutes after landing)
Ramp Weight491,974 lbs total
Total Fuel Used42,657 lbs
Total Block Time02:42:31 (2.7 hours) while 26 minutes were spent on the ground
Arrival METARKMEM 021654Z 09009KT 060V130 10SM FEW040 BKN110 BKN250 28/19 A3007 RMK AO2 SLP177 T02780189
MISCELLANEOUS DETAILS
LiveDISPATCH Version4.8.3.1
FS Version
FSUIPC Version4.96
OS VersionWindows 7 32-bit
Screen Resolution1360 x 768
Pilot's CommentsNo Comments Reported
FLIGHT MAP